sensor_id;sensor_type;location;lat;lon;timestamp;temperature;humidity
50738;DHT22;36703;48.154;17.126;2024-02-21T00:01:01;11.20;57.30
50738;DHT22;36703;48.154;17.126;2024-02-21T00:05:02;11.30;57.30
50738;DHT22;36703;48.154;17.126;2024-02-21T00:09:03;11.30;57.30
50738;DHT22;36703;48.154;17.126;2024-02-21T00:13:05;11.20;57.20
50738;DHT22;36703;48.154;17.126;2024-02-21T00:17:06;11.30;57.30
50738;DHT22;36703;48.154;17.126;2024-02-21T00:21:09;11.30;57.10
50738;DHT22;36703;48.154;17.126;2024-02-21T00:25:15;11.20;57.20
50738;DHT22;36703;48.154;17.126;2024-02-21T00:29:17;11.20;56.70
50738;DHT22;36703;48.154;17.126;2024-02-21T00:33:18;11.20;56.70
50738;DHT22;36703;48.154;17.126;2024-02-21T00:37:20;11.20;57.20
50738;DHT22;36703;48.154;17.126;2024-02-21T00:41:21;11.10;57.20
50738;DHT22;36703;48.154;17.126;2024-02-21T00:45:23;11.10;56.90
50738;DHT22;36703;48.154;17.126;2024-02-21T00:49:24;11.10;57.40
50738;DHT22;36703;48.154;17.126;2024-02-21T00:53:25;11.00;56.90
50738;DHT22;36703;48.154;17.126;2024-02-21T00:57:27;11.00;56.90
50738;DHT22;36703;48.154;17.126;2024-02-21T01:01:28;11.00;57.40
50738;DHT22;36703;48.154;17.126;2024-02-21T01:05:29;11.10;56.80
50738;DHT22;36703;48.154;17.126;2024-02-21T01:09:31;11.10;57.30
50738;DHT22;36703;48.154;17.126;2024-02-21T01:13:32;11.00;57.30
50738;DHT22;36703;48.154;17.126;2024-02-21T01:17:34;11.00;57.10
50738;DHT22;36703;48.154;17.126;2024-02-21T01:21:35;11.00;56.60
50738;DHT22;36703;48.154;17.126;2024-02-21T01:25:36;11.00;57.20
50738;DHT22;36703;48.154;17.126;2024-02-21T01:29:38;11.00;57.10
50738;DHT22;36703;48.154;17.126;2024-02-21T01:33:39;11.00;57.00
50738;DHT22;36703;48.154;17.126;2024-02-21T01:37:40;11.00;57.00
50738;DHT22;36703;48.154;17.126;2024-02-21T01:41:42;11.00;56.40
50738;DHT22;36703;48.154;17.126;2024-02-21T01:45:45;11.00;57.00
50738;DHT22;36703;48.154;17.126;2024-02-21T01:49:48;11.00;56.80
50738;DHT22;36703;48.154;17.126;2024-02-21T01:53:50;11.00;56.80
50738;DHT22;36703;48.154;17.126;2024-02-21T01:57:52;11.00;56.80
50738;DHT22;36703;48.154;17.126;2024-02-21T02:01:53;11.00;56.70
50738;DHT22;36703;48.154;17.126;2024-02-21T02:05:56;10.90;56.70
50738;DHT22;36703;48.154;17.126;2024-02-21T02:09:57;10.90;56.50
50738;DHT22;36703;48.154;17.126;2024-02-21T02:13:59;10.90;56.50
50738;DHT22;36703;48.154;17.126;2024-02-21T02:18:01;10.90;56.50
50738;DHT22;36703;48.154;17.126;2024-02-21T02:22:09;11.00;56.40
50738;DHT22;36703;48.154;17.126;2024-02-21T02:26:13;11.00;55.70
50738;DHT22;36703;48.154;17.126;2024-02-21T02:30:15;11.00;56.20
50738;DHT22;36703;48.154;17.126;2024-02-21T02:34:16;11.00;56.20
50738;DHT22;36703;48.154;17.126;2024-02-21T02:38:18;11.00;56.20
50738;DHT22;36703;48.154;17.126;2024-02-21T02:42:19;10.90;56.20
50738;DHT22;36703;48.154;17.126;2024-02-21T02:46:20;11.00;56.30
50738;DHT22;36703;48.154;17.126;2024-02-21T02:50:25;11.00;56.10
50738;DHT22;36703;48.154;17.126;2024-02-21T02:54:27;11.00;56.10
50738;DHT22;36703;48.154;17.126;2024-02-21T02:58:28;11.00;55.90
50738;DHT22;36703;48.154;17.126;2024-02-21T03:02:30;11.10;56.00
50738;DHT22;36703;48.154;17.126;2024-02-21T03:06:32;11.10;55.90
50738;DHT22;36703;48.154;17.126;2024-02-21T03:10:34;11.10;55.80
50738;DHT22;36703;48.154;17.126;2024-02-21T03:14:35;11.10;55.30
50738;DHT22;36703;48.154;17.126;2024-02-21T03:18:37;11.10;55.70
50738;DHT22;36703;48.154;17.126;2024-02-21T03:22:38;11.10;55.70
50738;DHT22;36703;48.154;17.126;2024-02-21T03:26:39;11.00;55.70
50738;DHT22;36703;48.154;17.126;2024-02-21T03:30:41;11.00;55.70
50738;DHT22;36703;48.154;17.126;2024-02-21T03:34:42;11.00;55.60
50738;DHT22;36703;48.154;17.126;2024-02-21T03:38:44;11.00;55.60
50738;DHT22;36703;48.154;17.126;2024-02-21T03:42:45;11.10;55.60
50738;DHT22;36703;48.154;17.126;2024-02-21T03:46:47;11.10;55.60
50738;DHT22;36703;48.154;17.126;2024-02-21T03:50:48;11.10;55.60
50738;DHT22;36703;48.154;17.126;2024-02-21T03:54:50;11.10;55.50
50738;DHT22;36703;48.154;17.126;2024-02-21T03:58:51;11.10;55.40
50738;DHT22;36703;48.154;17.126;2024-02-21T04:02:52;11.10;55.40
50738;DHT22;36703;48.154;17.126;2024-02-21T04:06:54;11.10;54.90
50738;DHT22;36703;48.154;17.126;2024-02-21T04:10:55;11.10;55.30
50738;DHT22;36703;48.154;17.126;2024-02-21T04:14:56;11.10;55.30
50738;DHT22;36703;48.154;17.126;2024-02-21T04:18:58;11.10;54.80
50738;DHT22;36703;48.154;17.126;2024-02-21T04:22:59;11.20;55.30
50738;DHT22;36703;48.154;17.126;2024-02-21T04:27:01;11.20;55.30
50738;DHT22;36703;48.154;17.126;2024-02-21T04:31:02;11.10;55.10
50738;DHT22;36703;48.154;17.126;2024-02-21T04:35:03;11.20;55.10
50738;DHT22;36703;48.154;17.126;2024-02-21T04:39:05;11.20;55.00
50738;DHT22;36703;48.154;17.126;2024-02-21T04:43:06;11.20;55.00
50738;DHT22;36703;48.154;17.126;2024-02-21T04:47:08;11.20;55.00
50738;DHT22;36703;48.154;17.126;2024-02-21T04:51:11;11.20;54.90
50738;DHT22;36703;48.154;17.126;2024-02-21T04:55:12;11.20;54.90
50738;DHT22;36703;48.154;17.126;2024-02-21T04:59:14;11.20;54.80
50738;DHT22;36703;48.154;17.126;2024-02-21T05:03:15;11.20;54.80
50738;DHT22;36703;48.154;17.126;2024-02-21T05:07:17;11.20;54.80
50738;DHT22;36703;48.154;17.126;2024-02-21T05:11:20;11.10;54.30
50738;DHT22;36703;48.154;17.126;2024-02-21T05:15:22;11.10;54.30
50738;DHT22;36703;48.154;17.126;2024-02-21T05:19:23;11.10;54.90
50738;DHT22;36703;48.154;17.126;2024-02-21T05:23:25;11.10;54.80
50738;DHT22;36703;48.154;17.126;2024-02-21T05:27:26;11.10;54.80
50738;DHT22;36703;48.154;17.126;2024-02-21T05:36:07;11.20;54.70
50738;DHT22;36703;48.154;17.126;2024-02-21T05:40:09;11.20;54.50
50738;DHT22;36703;48.154;17.126;2024-02-21T05:44:14;11.20;54.60
50738;DHT22;36703;48.154;17.126;2024-02-21T05:48:15;11.10;54.60
50738;DHT22;36703;48.154;17.126;2024-02-21T05:52:16;11.20;54.50
50738;DHT22;36703;48.154;17.126;2024-02-21T05:56:18;11.10;54.00
50738;DHT22;36703;48.154;17.126;2024-02-21T06:00:20;11.10;54.60
50738;DHT22;36703;48.154;17.126;2024-02-21T06:04:21;11.10;54.60
50738;DHT22;36703;48.154;17.126;2024-02-21T06:08:22;11.20;54.60
50738;DHT22;36703;48.154;17.126;2024-02-21T06:12:24;11.20;54.50
50738;DHT22;36703;48.154;17.126;2024-02-21T06:16:25;11.20;54.50
50738;DHT22;36703;48.154;17.126;2024-02-21T06:20:26;11.20;54.60
50738;DHT22;36703;48.154;17.126;2024-02-21T06:24:28;11.10;54.70
50738;DHT22;36703;48.154;17.126;2024-02-21T06:28:29;11.10;54.70
50738;DHT22;36703;48.154;17.126;2024-02-21T06:32:31;11.20;54.70
50738;DHT22;36703;48.154;17.126;2024-02-21T06:36:32;11.20;54.60
50738;DHT22;36703;48.154;17.126;2024-02-21T06:40:33;11.20;54.00
50738;DHT22;36703;48.154;17.126;2024-02-21T06:44:39;11.20;54.60
50738;DHT22;36703;48.154;17.126;2024-02-21T06:48:41;11.20;54.60
50738;DHT22;36703;48.154;17.126;2024-02-21T06:52:42;11.20;54.00
50738;DHT22;36703;48.154;17.126;2024-02-21T06:56:44;11.20;54.60
50738;DHT22;36703;48.154;17.126;2024-02-21T07:00:45;11.30;54.40
50738;DHT22;36703;48.154;17.126;2024-02-21T07:04:46;11.30;53.80
50738;DHT22;36703;48.154;17.126;2024-02-21T07:08:48;11.40;54.30
50738;DHT22;36703;48.154;17.126;2024-02-21T07:12:49;11.50;54.30
50738;DHT22;36703;48.154;17.126;2024-02-21T07:16:53;11.70;54.00
50738;DHT22;36703;48.154;17.126;2024-02-21T07:20:54;11.70;53.40
50738;DHT22;36703;48.154;17.126;2024-02-21T07:24:56;11.80;53.80
50738;DHT22;36703;48.154;17.126;2024-02-21T07:28:57;11.90;53.70
50738;DHT22;36703;48.154;17.126;2024-02-21T07:32:59;12.20;53.50
50738;DHT22;36703;48.154;17.126;2024-02-21T07:37:00;12.40;53.00
50738;DHT22;36703;48.154;17.126;2024-02-21T07:41:02;12.30;52.80
50738;DHT22;36703;48.154;17.126;2024-02-21T07:45:05;12.30;52.90
50738;DHT22;36703;48.154;17.126;2024-02-21T07:49:07;12.40;52.90
50738;DHT22;36703;48.154;17.126;2024-02-21T07:53:08;12.40;52.70
50738;DHT22;36703;48.154;17.126;2024-02-21T07:57:09;12.50;52.50
50738;DHT22;36703;48.154;17.126;2024-02-21T08:01:11;12.50;52.90
50738;DHT22;36703;48.154;17.126;2024-02-21T08:05:12;12.60;52.20
50738;DHT22;36703;48.154;17.126;2024-02-21T08:09:13;12.70;51.80
50738;DHT22;36703;48.154;17.126;2024-02-21T08:13:15;12.70;51.40
50738;DHT22;36703;48.154;17.126;2024-02-21T08:17:16;12.70;51.20
50738;DHT22;36703;48.154;17.126;2024-02-21T08:21:17;12.60;50.90
50738;DHT22;36703;48.154;17.126;2024-02-21T08:25:19;12.60;51.00
50738;DHT22;36703;48.154;17.126;2024-02-21T08:29:20;12.60;51.00
50738;DHT22;36703;48.154;17.126;2024-02-21T08:33:21;12.70;50.70
50738;DHT22;36703;48.154;17.126;2024-02-21T08:37:27;12.70;50.60
50738;DHT22;36703;48.154;17.126;2024-02-21T08:41:32;12.60;50.60
50738;DHT22;36703;48.154;17.126;2024-02-21T08:45:33;12.70;50.40
50738;DHT22;36703;48.154;17.126;2024-02-21T08:49:34;12.90;50.20
50738;DHT22;36703;48.154;17.126;2024-02-21T08:53:36;13.10;50.00
50738;DHT22;36703;48.154;17.126;2024-02-21T08:57:37;13.40;49.70
50738;DHT22;36703;48.154;17.126;2024-02-21T09:01:39;13.40;49.10
50738;DHT22;36703;48.154;17.126;2024-02-21T09:05:40;13.70;49.00
50738;DHT22;36703;48.154;17.126;2024-02-21T09:09:42;14.30;48.40
50738;DHT22;36703;48.154;17.126;2024-02-21T09:13:43;14.70;47.60
50738;DHT22;36703;48.154;17.126;2024-02-21T09:17:44;15.00;46.90
50738;DHT22;36703;48.154;17.126;2024-02-21T09:21:46;15.50;45.80
50738;DHT22;36703;48.154;17.126;2024-02-21T09:25:47;15.40;45.90
50738;DHT22;36703;48.154;17.126;2024-02-21T09:29:49;15.60;45.70
50738;DHT22;36703;48.154;17.126;2024-02-21T09:33:50;15.50;45.80
50738;DHT22;36703;48.154;17.126;2024-02-21T09:37:51;15.60;45.40
50738;DHT22;36703;48.154;17.126;2024-02-21T09:41:53;15.40;45.00
50738;DHT22;36703;48.154;17.126;2024-02-21T09:46:00;15.90;44.70
50738;DHT22;36703;48.154;17.126;2024-02-21T09:50:01;16.50;43.40
50738;DHT22;36703;48.154;17.126;2024-02-21T09:54:04;16.90;43.20
50738;DHT22;36703;48.154;17.126;2024-02-21T09:58:06;16.70;42.30
50738;DHT22;36703;48.154;17.126;2024-02-21T10:02:08;17.10;42.20
50738;DHT22;36703;48.154;17.126;2024-02-21T10:06:09;17.10;41.40
50738;DHT22;36703;48.154;17.126;2024-02-21T10:10:11;16.90;40.90
50738;DHT22;36703;48.154;17.126;2024-02-21T10:14:12;16.60;40.50
50738;DHT22;36703;48.154;17.126;2024-02-21T10:18:17;16.20;41.50
50738;DHT22;36703;48.154;17.126;2024-02-21T10:22:18;16.00;41.70
50738;DHT22;36703;48.154;17.126;2024-02-21T10:26:21;16.10;42.10
50738;DHT22;36703;48.154;17.126;2024-02-21T10:30:23;16.30;41.80
50738;DHT22;36703;48.154;17.126;2024-02-21T10:34:24;16.00;41.70
50738;DHT22;36703;48.154;17.126;2024-02-21T10:38:26;15.90;42.10
50738;DHT22;36703;48.154;17.126;2024-02-21T10:42:28;16.70;41.30
50738;DHT22;36703;48.154;17.126;2024-02-21T10:46:32;17.60;39.90
50738;DHT22;36703;48.154;17.126;2024-02-21T10:55:01;18.20;37.80
50738;DHT22;36703;48.154;17.126;2024-02-21T10:59:05;19.00;37.70
50738;DHT22;36703;48.154;17.126;2024-02-21T11:03:07;18.80;37.40
50738;DHT22;36703;48.154;17.126;2024-02-21T11:07:08;18.40;37.40
50738;DHT22;36703;48.154;17.126;2024-02-21T11:11:11;17.50;38.00
50738;DHT22;36703;48.154;17.126;2024-02-21T11:15:18;17.00;38.70
50738;DHT22;36703;48.154;17.126;2024-02-21T11:19:20;16.80;38.90
50738;DHT22;36703;48.154;17.126;2024-02-21T11:23:26;16.60;39.20
50738;DHT22;36703;48.154;17.126;2024-02-21T11:27:27;16.30;39.70
50738;DHT22;36703;48.154;17.126;2024-02-21T11:31:38;16.30;39.80
50738;DHT22;36703;48.154;17.126;2024-02-21T11:35:41;16.40;39.90
50738;DHT22;36703;48.154;17.126;2024-02-21T11:39:42;16.50;39.90
50738;DHT22;36703;48.154;17.126;2024-02-21T11:43:44;17.00;40.30
50738;DHT22;36703;48.154;17.126;2024-02-21T11:47:45;17.60;39.10
50738;DHT22;36703;48.154;17.126;2024-02-21T11:51:47;17.30;38.80
50738;DHT22;36703;48.154;17.126;2024-02-21T11:55:49;17.20;39.20
50738;DHT22;36703;48.154;17.126;2024-02-21T11:59:51;17.50;38.40
50738;DHT22;36703;48.154;17.126;2024-02-21T12:03:53;17.70;38.20
50738;DHT22;36703;48.154;17.126;2024-02-21T12:07:56;17.80;38.50
50738;DHT22;36703;48.154;17.126;2024-02-21T12:12:03;18.30;38.10
50738;DHT22;36703;48.154;17.126;2024-02-21T12:16:06;19.10;37.40
50738;DHT22;36703;48.154;17.126;2024-02-21T12:20:07;19.10;37.10
50738;DHT22;36703;48.154;17.126;2024-02-21T12:24:13;18.60;37.60
50738;DHT22;36703;48.154;17.126;2024-02-21T12:28:21;18.10;37.50
50738;DHT22;36703;48.154;17.126;2024-02-21T12:32:23;17.70;38.10
50738;DHT22;36703;48.154;17.126;2024-02-21T12:36:24;17.30;38.50
50738;DHT22;36703;48.154;17.126;2024-02-21T12:40:25;17.10;38.70
50738;DHT22;36703;48.154;17.126;2024-02-21T12:44:33;16.80;38.90
50738;DHT22;36703;48.154;17.126;2024-02-21T12:48:35;16.70;39.20
50738;DHT22;36703;48.154;17.126;2024-02-21T12:52:36;16.70;39.20
50738;DHT22;36703;48.154;17.126;2024-02-21T12:56:38;16.70;39.20
50738;DHT22;36703;48.154;17.126;2024-02-21T13:00:41;16.70;39.20
50738;DHT22;36703;48.154;17.126;2024-02-21T13:04:42;16.60;39.00
50738;DHT22;36703;48.154;17.126;2024-02-21T13:08:44;16.50;39.20
50738;DHT22;36703;48.154;17.126;2024-02-21T13:12:46;16.50;39.30
50738;DHT22;36703;48.154;17.126;2024-02-21T13:16:48;16.50;39.40
50738;DHT22;36703;48.154;17.126;2024-02-21T13:20:49;16.60;39.30
50738;DHT22;36703;48.154;17.126;2024-02-21T13:24:51;16.60;39.40
50738;DHT22;36703;48.154;17.126;2024-02-21T13:28:53;16.60;39.30
50738;DHT22;36703;48.154;17.126;2024-02-21T13:32:54;16.60;38.80
50738;DHT22;36703;48.154;17.126;2024-02-21T13:36:56;16.60;39.40
50738;DHT22;36703;48.154;17.126;2024-02-21T13:40:57;16.60;39.50
50738;DHT22;36703;48.154;17.126;2024-02-21T13:44:58;16.50;39.60
50738;DHT22;36703;48.154;17.126;2024-02-21T13:49:03;16.30;39.70
50738;DHT22;36703;48.154;17.126;2024-02-21T13:53:06;16.20;39.80
50738;DHT22;36703;48.154;17.126;2024-02-21T13:57:07;16.20;39.90
50738;DHT22;36703;48.154;17.126;2024-02-21T14:01:09;16.20;39.80
50738;DHT22;36703;48.154;17.126;2024-02-21T14:05:10;16.20;39.90
50738;DHT22;36703;48.154;17.126;2024-02-21T14:09:12;16.30;39.90
50738;DHT22;36703;48.154;17.126;2024-02-21T14:13:14;16.30;39.80
50738;DHT22;36703;48.154;17.126;2024-02-21T14:17:15;16.40;39.90
50738;DHT22;36703;48.154;17.126;2024-02-21T14:21:16;16.40;39.80
50738;DHT22;36703;48.154;17.126;2024-02-21T14:25:18;16.40;39.40
50738;DHT22;36703;48.154;17.126;2024-02-21T14:29:19;16.30;39.00
50738;DHT22;36703;48.154;17.126;2024-02-21T14:33:22;16.90;38.40
50738;DHT22;36703;48.154;17.126;2024-02-21T14:37:23;17.60;37.70
50738;DHT22;36703;48.154;17.126;2024-02-21T14:41:24;17.70;36.80
50738;DHT22;36703;48.154;17.126;2024-02-21T14:45:26;17.30;36.60
50738;DHT22;36703;48.154;17.126;2024-02-21T14:49:27;16.80;37.10
50738;DHT22;36703;48.154;17.126;2024-02-21T14:53:29;16.60;37.60
50738;DHT22;36703;48.154;17.126;2024-02-21T14:57:31;16.50;37.80
50738;DHT22;36703;48.154;17.126;2024-02-21T15:01:36;16.50;37.90
50738;DHT22;36703;48.154;17.126;2024-02-21T15:05:40;16.50;38.00
50738;DHT22;36703;48.154;17.126;2024-02-21T15:09:42;16.40;38.20
50738;DHT22;36703;48.154;17.126;2024-02-21T15:13:44;17.60;39.00
50738;DHT22;36703;48.154;17.126;2024-02-21T15:17:45;16.30;38.40
50738;DHT22;36703;48.154;17.126;2024-02-21T15:21:46;16.30;39.00
50738;DHT22;36703;48.154;17.126;2024-02-21T15:25:48;16.20;38.40
50738;DHT22;36703;48.154;17.126;2024-02-21T15:29:49;16.10;38.50
50738;DHT22;36703;48.154;17.126;2024-02-21T15:33:51;15.80;38.70
50738;DHT22;36703;48.154;17.126;2024-02-21T15:37:53;15.70;38.90
50738;DHT22;36703;48.154;17.126;2024-02-21T15:41:56;15.60;39.00
50738;DHT22;36703;48.154;17.126;2024-02-21T15:45:58;15.50;39.10
50738;DHT22;36703;48.154;17.126;2024-02-21T15:49:59;15.40;39.10
50738;DHT22;36703;48.154;17.126;2024-02-21T15:54:02;15.30;39.20
50738;DHT22;36703;48.154;17.126;2024-02-21T15:58:03;15.30;39.20
50738;DHT22;36703;48.154;17.126;2024-02-21T16:02:07;15.20;39.60
50738;DHT22;36703;48.154;17.126;2024-02-21T16:06:09;15.20;39.40
50738;DHT22;36703;48.154;17.126;2024-02-21T16:10:10;15.10;39.00
50738;DHT22;36703;48.154;17.126;2024-02-21T16:14:12;15.00;39.60
50738;DHT22;36703;48.154;17.126;2024-02-21T16:18:13;14.90;39.70
50738;DHT22;36703;48.154;17.126;2024-02-21T16:22:15;14.90;39.80
50738;DHT22;36703;48.154;17.126;2024-02-21T16:26:17;14.80;39.80
50738;DHT22;36703;48.154;17.126;2024-02-21T16:30:18;14.80;39.80
50738;DHT22;36703;48.154;17.126;2024-02-21T16:34:20;14.80;40.00
50738;DHT22;36703;48.154;17.126;2024-02-21T16:38:21;14.80;40.00
50738;DHT22;36703;48.154;17.126;2024-02-21T16:42:22;14.80;40.20
50738;DHT22;36703;48.154;17.126;2024-02-21T16:46:26;14.80;40.40
50738;DHT22;36703;48.154;17.126;2024-02-21T16:50:28;14.90;40.30
50738;DHT22;36703;48.154;17.126;2024-02-21T16:54:29;15.00;40.20
50738;DHT22;36703;48.154;17.126;2024-02-21T16:58:31;15.00;40.30
50738;DHT22;36703;48.154;17.126;2024-02-21T17:02:38;15.00;40.40
50738;DHT22;36703;48.154;17.126;2024-02-21T17:06:40;15.00;40.40
50738;DHT22;36703;48.154;17.126;2024-02-21T17:10:41;15.00;40.40
50738;DHT22;36703;48.154;17.126;2024-02-21T17:14:45;15.00;40.50
50738;DHT22;36703;48.154;17.126;2024-02-21T17:18:47;15.00;40.70
50738;DHT22;36703;48.154;17.126;2024-02-21T17:22:48;15.00;40.60
50738;DHT22;36703;48.154;17.126;2024-02-21T17:26:50;15.00;40.70
50738;DHT22;36703;48.154;17.126;2024-02-21T17:30:52;15.00;40.70
50738;DHT22;36703;48.154;17.126;2024-02-21T17:34:53;15.00;40.70
50738;DHT22;36703;48.154;17.126;2024-02-21T17:38:55;15.00;40.90
50738;DHT22;36703;48.154;17.126;2024-02-21T17:42:56;14.90;40.80
50738;DHT22;36703;48.154;17.126;2024-02-21T17:46:58;15.00;40.90
50738;DHT22;36703;48.154;17.126;2024-02-21T17:51:00;15.00;41.00
50738;DHT22;36703;48.154;17.126;2024-02-21T17:55:03;15.00;41.00
50738;DHT22;36703;48.154;17.126;2024-02-21T17:59:06;15.00;41.10
50738;DHT22;36703;48.154;17.126;2024-02-21T18:03:07;15.00;41.20
50738;DHT22;36703;48.154;17.126;2024-02-21T18:07:09;14.90;41.20
50738;DHT22;36703;48.154;17.126;2024-02-21T18:11:10;14.90;41.30
50738;DHT22;36703;48.154;17.126;2024-02-21T18:15:17;14.90;41.40
50738;DHT22;36703;48.154;17.126;2024-02-21T18:19:19;14.90;41.40
50738;DHT22;36703;48.154;17.126;2024-02-21T18:23:20;14.80;41.50
50738;DHT22;36703;48.154;17.126;2024-02-21T18:27:21;14.80;41.50
50738;DHT22;36703;48.154;17.126;2024-02-21T18:31:23;14.80;41.60
50738;DHT22;36703;48.154;17.126;2024-02-21T18:35:25;14.70;41.60
50738;DHT22;36703;48.154;17.126;2024-02-21T18:39:27;14.60;41.70
50738;DHT22;36703;48.154;17.126;2024-02-21T18:43:29;14.50;41.90
50738;DHT22;36703;48.154;17.126;2024-02-21T18:47:30;14.30;42.30
50738;DHT22;36703;48.154;17.126;2024-02-21T18:51:32;14.20;42.60
50738;DHT22;36703;48.154;17.126;2024-02-21T18:55:34;14.20;42.70
50738;DHT22;36703;48.154;17.126;2024-02-21T18:59:35;14.20;42.80
50738;DHT22;36703;48.154;17.126;2024-02-21T19:03:36;14.20;42.90
50738;DHT22;36703;48.154;17.126;2024-02-21T19:07:38;14.20;43.00
50738;DHT22;36703;48.154;17.126;2024-02-21T19:11:39;14.10;43.10
50738;DHT22;36703;48.154;17.126;2024-02-21T19:15:41;14.00;43.20
50738;DHT22;36703;48.154;17.126;2024-02-21T19:19:42;13.90;43.30
50738;DHT22;36703;48.154;17.126;2024-02-21T19:23:45;13.90;43.50
50738;DHT22;36703;48.154;17.126;2024-02-21T19:27:47;13.90;43.70
50738;DHT22;36703;48.154;17.126;2024-02-21T19:31:48;13.70;43.80
50738;DHT22;36703;48.154;17.126;2024-02-21T19:35:50;13.70;43.40
50738;DHT22;36703;48.154;17.126;2024-02-21T19:39:51;13.60;44.10
50738;DHT22;36703;48.154;17.126;2024-02-21T19:43:52;13.60;44.30
50738;DHT22;36703;48.154;17.126;2024-02-21T19:47:55;13.30;44.30
50738;DHT22;36703;48.154;17.126;2024-02-21T19:51:57;13.30;45.00
50738;DHT22;36703;48.154;17.126;2024-02-21T19:55:59;13.30;45.20
50738;DHT22;36703;48.154;17.126;2024-02-21T20:00:00;13.30;45.10
50738;DHT22;36703;48.154;17.126;2024-02-21T20:04:13;13.30;45.20
50738;DHT22;36703;48.154;17.126;2024-02-21T20:08:15;13.30;45.10
50738;DHT22;36703;48.154;17.126;2024-02-21T20:12:18;13.30;45.10
50738;DHT22;36703;48.154;17.126;2024-02-21T20:16:21;13.30;45.10
50738;DHT22;36703;48.154;17.126;2024-02-21T20:20:23;13.20;45.10
50738;DHT22;36703;48.154;17.126;2024-02-21T20:24:25;13.20;45.20
50738;DHT22;36703;48.154;17.126;2024-02-21T20:28:26;13.20;45.30
50738;DHT22;36703;48.154;17.126;2024-02-21T20:32:27;13.20;45.30
50738;DHT22;36703;48.154;17.126;2024-02-21T20:36:31;13.20;45.30
50738;DHT22;36703;48.154;17.126;2024-02-21T20:40:33;13.10;45.30
50738;DHT22;36703;48.154;17.126;2024-02-21T20:44:35;13.10;45.40
50738;DHT22;36703;48.154;17.126;2024-02-21T20:48:36;13.00;45.40
50738;DHT22;36703;48.154;17.126;2024-02-21T20:52:38;13.00;45.00
50738;DHT22;36703;48.154;17.126;2024-02-21T20:56:39;12.90;45.70
50738;DHT22;36703;48.154;17.126;2024-02-21T21:00:41;12.90;45.80
50738;DHT22;36703;48.154;17.126;2024-02-21T21:04:42;12.80;45.90
50738;DHT22;36703;48.154;17.126;2024-02-21T21:08:43;12.80;46.00
50738;DHT22;36703;48.154;17.126;2024-02-21T21:12:45;12.70;46.10
50738;DHT22;36703;48.154;17.126;2024-02-21T21:16:46;12.60;45.70
50738;DHT22;36703;48.154;17.126;2024-02-21T21:20:48;12.60;46.30
50738;DHT22;36703;48.154;17.126;2024-02-21T21:24:49;12.60;46.40
50738;DHT22;36703;48.154;17.126;2024-02-21T21:28:51;12.50;46.60
50738;DHT22;36703;48.154;17.126;2024-02-21T21:32:57;12.50;46.70
50738;DHT22;36703;48.154;17.126;2024-02-21T21:36:58;12.20;46.40
50738;DHT22;36703;48.154;17.126;2024-02-21T21:41:01;12.20;47.10
50738;DHT22;36703;48.154;17.126;2024-02-21T21:45:02;12.00;47.50
50738;DHT22;36703;48.154;17.126;2024-02-21T21:49:04;11.80;47.00
50738;DHT22;36703;48.154;17.126;2024-02-21T21:53:05;11.90;47.70
50738;DHT22;36703;48.154;17.126;2024-02-21T21:57:07;11.80;47.90
50738;DHT22;36703;48.154;17.126;2024-02-21T22:01:11;11.80;47.80
50738;DHT22;36703;48.154;17.126;2024-02-21T22:05:14;11.70;47.50
50738;DHT22;36703;48.154;17.126;2024-02-21T22:09:16;11.70;48.10
50738;DHT22;36703;48.154;17.126;2024-02-21T22:13:17;11.70;48.20
50738;DHT22;36703;48.154;17.126;2024-02-21T22:17:19;11.70;48.30
50738;DHT22;36703;48.154;17.126;2024-02-21T22:21:21;11.70;48.20
50738;DHT22;36703;48.154;17.126;2024-02-21T22:25:22;11.50;48.40
50738;DHT22;36703;48.154;17.126;2024-02-21T22:29:23;11.60;47.90
50738;DHT22;36703;48.154;17.126;2024-02-21T22:33:25;11.60;48.40
50738;DHT22;36703;48.154;17.126;2024-02-21T22:37:26;11.60;48.40
50738;DHT22;36703;48.154;17.126;2024-02-21T22:41:27;11.50;48.40
50738;DHT22;36703;48.154;17.126;2024-02-21T22:45:29;11.50;48.50
50738;DHT22;36703;48.154;17.126;2024-02-21T22:49:30;11.40;48.60
50738;DHT22;36703;48.154;17.126;2024-02-21T22:53:32;11.40;48.60
50738;DHT22;36703;48.154;17.126;2024-02-21T22:57:33;11.30;48.90
50738;DHT22;36703;48.154;17.126;2024-02-21T23:01:35;11.20;49.10
50738;DHT22;36703;48.154;17.126;2024-02-21T23:05:36;11.20;49.20
50738;DHT22;36703;48.154;17.126;2024-02-21T23:09:37;11.20;49.10
50738;DHT22;36703;48.154;17.126;2024-02-21T23:13:39;11.30;48.40
50738;DHT22;36703;48.154;17.126;2024-02-21T23:17:40;11.30;48.40
50738;DHT22;36703;48.154;17.126;2024-02-21T23:21:45;11.30;49.00
50738;DHT22;36703;48.154;17.126;2024-02-21T23:25:46;11.20;49.10
50738;DHT22;36703;48.154;17.126;2024-02-21T23:29:50;11.10;48.90
50738;DHT22;36703;48.154;17.126;2024-02-21T23:33:51;11.10;49.00
50738;DHT22;36703;48.154;17.126;2024-02-21T23:37:53;11.10;49.00
50738;DHT22;36703;48.154;17.126;2024-02-21T23:41:54;11.00;49.10
50738;DHT22;36703;48.154;17.126;2024-02-21T23:45:55;11.00;49.70
50738;DHT22;36703;48.154;17.126;2024-02-21T23:49:57;11.00;49.30
50738;DHT22;36703;48.154;17.126;2024-02-21T23:53:58;11.00;49.20
50738;DHT22;36703;48.154;17.126;2024-02-21T23:58:00;11.00;49.30
